sensor_id;sensor_type;location;lat;lon;timestamp;P1;durP1;ratioP1;P2;durP2;ratioP2
2840;SDS011;53423;49.224;12.074;2022-09-29T00:00:36;4.53;;;4.10;;
2840;SDS011;53423;49.224;12.074;2022-09-29T00:03:04;5.00;;;3.90;;
2840;SDS011;53423;49.224;12.074;2022-09-29T00:05:33;6.13;;;4.00;;
2840;SDS011;53423;49.224;12.074;2022-09-29T00:08:03;6.30;;;4.40;;
2840;SDS011;53423;49.224;12.074;2022-09-29T00:10:31;4.90;;;4.50;;
2840;SDS011;53423;49.224;12.074;2022-09-29T00:12:58;4.87;;;4.40;;
2840;SDS011;53423;49.224;12.074;2022-09-29T00:15:26;4.60;;;4.20;;
2840;SDS011;53423;49.224;12.074;2022-09-29T00:17:54;5.50;;;4.47;;
2840;SDS011;53423;49.224;12.074;2022-09-29T00:20:39;4.37;;;3.97;;
2840;SDS011;53423;49.224;12.074;2022-09-29T00:23:08;4.60;;;4.13;;
2840;SDS011;53423;49.224;12.074;2022-09-29T00:25:36;5.37;;;4.17;;
2840;SDS011;53423;49.224;12.074;2022-09-29T00:28:04;8.43;;;4.20;;
2840;SDS011;53423;49.224;12.074;2022-09-29T00:30:32;4.77;;;4.03;;
2840;SDS011;53423;49.224;12.074;2022-09-29T00:33:00;5.00;;;4.00;;
2840;SDS011;53423;49.224;12.074;2022-09-29T00:35:28;5.30;;;3.80;;
2840;SDS011;53423;49.224;12.074;2022-09-29T00:37:56;4.83;;;3.97;;
2840;SDS011;53423;49.224;12.074;2022-09-29T00:40:25;3.80;;;3.50;;
2840;SDS011;53423;49.224;12.074;2022-09-29T00:42:53;3.87;;;3.57;;
2840;SDS011;53423;49.224;12.074;2022-09-29T00:45:22;5.13;;;4.50;;
2840;SDS011;53423;49.224;12.074;2022-09-29T00:47:52;4.23;;;3.87;;
2840;SDS011;53423;49.224;12.074;2022-09-29T00:50:32;4.37;;;4.03;;
2840;SDS011;53423;49.224;12.074;2022-09-29T00:53:08;4.50;;;4.10;;
2840;SDS011;53423;49.224;12.074;2022-09-29T00:55:47;7.07;;;4.73;;
2840;SDS011;53423;49.224;12.074;2022-09-29T00:58:21;5.27;;;4.07;;
2840;SDS011;53423;49.224;12.074;2022-09-29T01:00:55;5.13;;;4.40;;
2840;SDS011;53423;49.224;12.074;2022-09-29T01:03:25;4.37;;;4.07;;
2840;SDS011;53423;49.224;12.074;2022-09-29T01:05:58;4.30;;;3.90;;
2840;SDS011;53423;49.224;12.074;2022-09-29T01:08:30;3.70;;;3.43;;
2840;SDS011;53423;49.224;12.074;2022-09-29T01:11:04;5.13;;;4.27;;
2840;SDS011;53423;49.224;12.074;2022-09-29T01:13:33;4.53;;;4.13;;
2840;SDS011;53423;49.224;12.074;2022-09-29T01:16:01;4.63;;;4.23;;
2840;SDS011;53423;49.224;12.074;2022-09-29T01:18:29;4.73;;;4.33;;
2840;SDS011;53423;49.224;12.074;2022-09-29T01:21:02;5.10;;;4.60;;
2840;SDS011;53423;49.224;12.074;2022-09-29T01:26:42;5.13;;;4.73;;
2840;SDS011;53423;49.224;12.074;2022-09-29T01:32:37;4.43;;;4.10;;
2840;SDS011;53423;49.224;12.074;2022-09-29T01:35:13;5.30;;;3.90;;
2840;SDS011;53423;49.224;12.074;2022-09-29T01:37:52;5.93;;;4.27;;
2840;SDS011;53423;49.224;12.074;2022-09-29T01:40:32;4.60;;;3.80;;
2840;SDS011;53423;49.224;12.074;2022-09-29T01:43:06;3.80;;;3.50;;
2840;SDS011;53423;49.224;12.074;2022-09-29T01:45:37;5.17;;;4.20;;
2840;SDS011;53423;49.224;12.074;2022-09-29T01:48:10;4.20;;;3.80;;
2840;SDS011;53423;49.224;12.074;2022-09-29T01:50:45;4.07;;;3.63;;
2840;SDS011;53423;49.224;12.074;2022-09-29T01:53:16;4.53;;;3.67;;
2840;SDS011;53423;49.224;12.074;2022-09-29T01:55:50;5.37;;;4.27;;
2840;SDS011;53423;49.224;12.074;2022-09-29T01:58:22;3.73;;;3.43;;
2840;SDS011;53423;49.224;12.074;2022-09-29T02:00:53;5.10;;;4.17;;
2840;SDS011;53423;49.224;12.074;2022-09-29T02:03:27;5.10;;;4.23;;
2840;SDS011;53423;49.224;12.074;2022-09-29T02:05:58;4.30;;;3.90;;
2840;SDS011;53423;49.224;12.074;2022-09-29T02:08:32;5.80;;;4.10;;
2840;SDS011;53423;49.224;12.074;2022-09-29T02:11:05;4.00;;;3.70;;
2840;SDS011;53423;49.224;12.074;2022-09-29T02:13:35;4.53;;;3.80;;
2840;SDS011;53423;49.224;12.074;2022-09-29T02:16:07;5.13;;;4.20;;
2840;SDS011;53423;49.224;12.074;2022-09-29T02:18:41;4.73;;;3.83;;
2840;SDS011;53423;49.224;12.074;2022-09-29T02:21:14;4.53;;;4.10;;
2840;SDS011;53423;49.224;12.074;2022-09-29T02:23:42;4.57;;;4.17;;
2840;SDS011;53423;49.224;12.074;2022-09-29T02:26:10;5.53;;;4.93;;
2840;SDS011;53423;49.224;12.074;2022-09-29T02:28:39;5.43;;;4.93;;
2840;SDS011;53423;49.224;12.074;2022-09-29T02:31:08;5.30;;;4.80;;
2840;SDS011;53423;49.224;12.074;2022-09-29T02:33:36;5.37;;;4.60;;
2840;SDS011;53423;49.224;12.074;2022-09-29T02:36:10;5.40;;;4.90;;
2840;SDS011;53423;49.224;12.074;2022-09-29T02:38:50;5.93;;;5.33;;
2840;SDS011;53423;49.224;12.074;2022-09-29T02:41:26;7.23;;;5.40;;
2840;SDS011;53423;49.224;12.074;2022-09-29T02:44:08;5.50;;;5.00;;
2840;SDS011;53423;49.224;12.074;2022-09-29T02:46:53;7.43;;;6.07;;
2840;SDS011;53423;49.224;12.074;2022-09-29T02:49:48;6.67;;;5.93;;
2840;SDS011;53423;49.224;12.074;2022-09-29T02:52:39;6.80;;;6.17;;
2840;SDS011;53423;49.224;12.074;2022-09-29T02:55:14;6.97;;;5.50;;
2840;SDS011;53423;49.224;12.074;2022-09-29T02:57:46;5.80;;;5.30;;
2840;SDS011;53423;49.224;12.074;2022-09-29T03:00:18;6.60;;;5.80;;
2840;SDS011;53423;49.224;12.074;2022-09-29T03:02:46;6.93;;;6.27;;
2840;SDS011;53423;49.224;12.074;2022-09-29T03:05:15;7.23;;;6.50;;
2840;SDS011;53423;49.224;12.074;2022-09-29T03:07:47;8.43;;;7.63;;
2840;SDS011;53423;49.224;12.074;2022-09-29T03:10:15;9.13;;;7.00;;
2840;SDS011;53423;49.224;12.074;2022-09-29T03:12:44;7.23;;;5.90;;
2840;SDS011;53423;49.224;12.074;2022-09-29T03:15:13;6.50;;;5.90;;
2840;SDS011;53423;49.224;12.074;2022-09-29T03:17:41;7.70;;;6.70;;
2840;SDS011;53423;49.224;12.074;2022-09-29T03:20:09;8.10;;;6.70;;
2840;SDS011;53423;49.224;12.074;2022-09-29T03:22:37;6.87;;;6.17;;
2840;SDS011;53423;49.224;12.074;2022-09-29T03:25:07;8.97;;;8.17;;
2840;SDS011;53423;49.224;12.074;2022-09-29T03:27:35;10.53;;;9.13;;
2840;SDS011;53423;49.224;12.074;2022-09-29T03:30:04;10.83;;;9.77;;
2840;SDS011;53423;49.224;12.074;2022-09-29T03:32:32;11.87;;;10.67;;
2840;SDS011;53423;49.224;12.074;2022-09-29T03:35:00;12.00;;;10.80;;
2840;SDS011;53423;49.224;12.074;2022-09-29T03:37:28;12.73;;;11.50;;
2840;SDS011;53423;49.224;12.074;2022-09-29T03:39:56;13.10;;;11.80;;
2840;SDS011;53423;49.224;12.074;2022-09-29T03:42:25;12.13;;;10.87;;
2840;SDS011;53423;49.224;12.074;2022-09-29T03:44:53;13.23;;;11.97;;
2840;SDS011;53423;49.224;12.074;2022-09-29T03:47:21;12.70;;;11.33;;
2840;SDS011;53423;49.224;12.074;2022-09-29T03:49:49;12.50;;;11.30;;
2840;SDS011;53423;49.224;12.074;2022-09-29T03:52:17;13.63;;;11.33;;
2840;SDS011;53423;49.224;12.074;2022-09-29T03:54:45;12.87;;;11.60;;
2840;SDS011;53423;49.224;12.074;2022-09-29T03:57:13;14.37;;;11.73;;
2840;SDS011;53423;49.224;12.074;2022-09-29T03:59:42;13.27;;;11.97;;
2840;SDS011;53423;49.224;12.074;2022-09-29T04:02:11;12.80;;;11.60;;
2840;SDS011;53423;49.224;12.074;2022-09-29T04:04:39;12.70;;;11.50;;
2840;SDS011;53423;49.224;12.074;2022-09-29T04:07:07;13.73;;;12.33;;
2840;SDS011;53423;49.224;12.074;2022-09-29T04:09:35;14.50;;;12.30;;
2840;SDS011;53423;49.224;12.074;2022-09-29T04:12:03;14.97;;;13.37;;
2840;SDS011;53423;49.224;12.074;2022-09-29T04:14:31;13.70;;;12.30;;
2840;SDS011;53423;49.224;12.074;2022-09-29T04:17:00;14.57;;;13.07;;
2840;SDS011;53423;49.224;12.074;2022-09-29T04:19:28;14.13;;;12.73;;
2840;SDS011;53423;49.224;12.074;2022-09-29T04:21:56;14.20;;;12.90;;
2840;SDS011;53423;49.224;12.074;2022-09-29T04:24:25;12.53;;;11.33;;
2840;SDS011;53423;49.224;12.074;2022-09-29T04:26:53;15.03;;;13.30;;
2840;SDS011;53423;49.224;12.074;2022-09-29T04:29:21;14.77;;;13.23;;
2840;SDS011;53423;49.224;12.074;2022-09-29T04:31:48;15.10;;;13.20;;
2840;SDS011;53423;49.224;12.074;2022-09-29T04:34:18;14.30;;;12.80;;
2840;SDS011;53423;49.224;12.074;2022-09-29T04:36:46;13.87;;;12.47;;
2840;SDS011;53423;49.224;12.074;2022-09-29T04:39:14;15.33;;;13.73;;
2840;SDS011;53423;49.224;12.074;2022-09-29T04:41:42;15.23;;;12.47;;
2840;SDS011;53423;49.224;12.074;2022-09-29T04:44:10;14.67;;;13.17;;
2840;SDS011;53423;49.224;12.074;2022-09-29T04:46:38;14.07;;;12.57;;
2840;SDS011;53423;49.224;12.074;2022-09-29T04:49:06;14.53;;;13.13;;
2840;SDS011;53423;49.224;12.074;2022-09-29T04:51:35;14.77;;;12.50;;
2840;SDS011;53423;49.224;12.074;2022-09-29T04:54:03;15.07;;;13.57;;
2840;SDS011;53423;49.224;12.074;2022-09-29T04:56:31;13.40;;;12.13;;
2840;SDS011;53423;49.224;12.074;2022-09-29T04:58:59;14.90;;;13.37;;
2840;SDS011;53423;49.224;12.074;2022-09-29T05:01:27;15.20;;;12.77;;
2840;SDS011;53423;49.224;12.074;2022-09-29T05:03:55;13.00;;;11.70;;
2840;SDS011;53423;49.224;12.074;2022-09-29T05:06:24;13.90;;;12.50;;
2840;SDS011;53423;49.224;12.074;2022-09-29T05:08:53;14.57;;;12.80;;
2840;SDS011;53423;49.224;12.074;2022-09-29T05:11:21;13.07;;;11.70;;
2840;SDS011;53423;49.224;12.074;2022-09-29T05:13:49;13.77;;;12.40;;
2840;SDS011;53423;49.224;12.074;2022-09-29T05:16:17;13.83;;;12.53;;
2840;SDS011;53423;49.224;12.074;2022-09-29T05:18:45;14.53;;;12.90;;
2840;SDS011;53423;49.224;12.074;2022-09-29T05:21:13;15.93;;;13.57;;
2840;SDS011;53423;49.224;12.074;2022-09-29T05:23:55;15.53;;;13.80;;
2840;SDS011;53423;49.224;12.074;2022-09-29T05:26:23;16.03;;;14.00;;
2840;SDS011;53423;49.224;12.074;2022-09-29T05:28:51;18.23;;;14.03;;
2840;SDS011;53423;49.224;12.074;2022-09-29T05:31:19;15.90;;;14.30;;
2840;SDS011;53423;49.224;12.074;2022-09-29T05:33:47;15.87;;;14.27;;
2840;SDS011;53423;49.224;12.074;2022-09-29T05:36:15;16.60;;;14.93;;
2840;SDS011;53423;49.224;12.074;2022-09-29T05:38:43;16.33;;;14.40;;
2840;SDS011;53423;49.224;12.074;2022-09-29T05:41:13;16.87;;;14.33;;
2840;SDS011;53423;49.224;12.074;2022-09-29T05:43:48;15.03;;;13.37;;
2840;SDS011;53423;49.224;12.074;2022-09-29T05:46:16;15.10;;;13.60;;
2840;SDS011;53423;49.224;12.074;2022-09-29T05:48:44;13.73;;;11.80;;
2840;SDS011;53423;49.224;12.074;2022-09-29T05:51:13;13.77;;;12.43;;
2840;SDS011;53423;49.224;12.074;2022-09-29T05:53:48;12.77;;;11.43;;
2840;SDS011;53423;49.224;12.074;2022-09-29T05:56:19;13.93;;;12.53;;
2840;SDS011;53423;49.224;12.074;2022-09-29T05:58:48;14.90;;;13.37;;
2840;SDS011;53423;49.224;12.074;2022-09-29T06:01:18;15.40;;;13.90;;
2840;SDS011;53423;49.224;12.074;2022-09-29T06:03:47;15.97;;;14.37;;
2840;SDS011;53423;49.224;12.074;2022-09-29T06:06:18;15.37;;;13.77;;
2840;SDS011;53423;49.224;12.074;2022-09-29T06:08:47;14.00;;;12.47;;
2840;SDS011;53423;49.224;12.074;2022-09-29T06:11:18;14.47;;;13.07;;
2840;SDS011;53423;49.224;12.074;2022-09-29T06:13:48;12.97;;;11.77;;
2840;SDS011;53423;49.224;12.074;2022-09-29T06:16:18;14.67;;;13.07;;
2840;SDS011;53423;49.224;12.074;2022-09-29T06:18:47;16.03;;;14.43;;
2840;SDS011;53423;49.224;12.074;2022-09-29T06:21:16;15.43;;;13.93;;
2840;SDS011;53423;49.224;12.074;2022-09-29T06:23:46;14.93;;;13.63;;
2840;SDS011;53423;49.224;12.074;2022-09-29T06:26:15;13.93;;;12.63;;
2840;SDS011;53423;49.224;12.074;2022-09-29T06:28:49;15.23;;;13.63;;
2840;SDS011;53423;49.224;12.074;2022-09-29T06:31:18;14.57;;;13.17;;
2840;SDS011;53423;49.224;12.074;2022-09-29T06:33:47;13.90;;;12.43;;
2840;SDS011;53423;49.224;12.074;2022-09-29T06:36:16;14.47;;;13.07;;
2840;SDS011;53423;49.224;12.074;2022-09-29T06:39:03;14.97;;;13.40;;
2840;SDS011;53423;49.224;12.074;2022-09-29T06:41:34;14.50;;;12.47;;
2840;SDS011;53423;49.224;12.074;2022-09-29T06:44:02;13.87;;;12.50;;
2840;SDS011;53423;49.224;12.074;2022-09-29T06:46:31;13.87;;;12.57;;
2840;SDS011;53423;49.224;12.074;2022-09-29T06:48:59;13.97;;;12.57;;
2840;SDS011;53423;49.224;12.074;2022-09-29T06:51:27;14.17;;;12.83;;
2840;SDS011;53423;49.224;12.074;2022-09-29T06:54:10;14.13;;;12.63;;
2840;SDS011;53423;49.224;12.074;2022-09-29T06:56:40;13.20;;;12.00;;
2840;SDS011;53423;49.224;12.074;2022-09-29T06:59:08;14.17;;;12.77;;
2840;SDS011;53423;49.224;12.074;2022-09-29T07:01:36;13.17;;;11.87;;
2840;SDS011;53423;49.224;12.074;2022-09-29T07:04:04;12.93;;;11.70;;
2840;SDS011;53423;49.224;12.074;2022-09-29T07:06:32;12.73;;;11.53;;
2840;SDS011;53423;49.224;12.074;2022-09-29T07:09:00;13.30;;;12.07;;
2840;SDS011;53423;49.224;12.074;2022-09-29T07:11:28;13.43;;;12.13;;
2840;SDS011;53423;49.224;12.074;2022-09-29T07:13:57;12.93;;;11.73;;
2840;SDS011;53423;49.224;12.074;2022-09-29T07:16:25;13.83;;;12.60;;
2840;SDS011;53423;49.224;12.074;2022-09-29T07:18:53;12.00;;;10.90;;
2840;SDS011;53423;49.224;12.074;2022-09-29T07:21:21;12.70;;;11.60;;
2840;SDS011;53423;49.224;12.074;2022-09-29T07:23:49;11.73;;;10.63;;
2840;SDS011;53423;49.224;12.074;2022-09-29T07:26:17;12.27;;;11.17;;
2840;SDS011;53423;49.224;12.074;2022-09-29T07:28:45;12.33;;;11.30;;
2840;SDS011;53423;49.224;12.074;2022-09-29T07:31:16;13.70;;;12.27;;
2840;SDS011;53423;49.224;12.074;2022-09-29T07:33:46;13.30;;;11.90;;
2840;SDS011;53423;49.224;12.074;2022-09-29T07:36:16;12.83;;;11.73;;
2840;SDS011;53423;49.224;12.074;2022-09-29T07:38:45;13.23;;;12.07;;
2840;SDS011;53423;49.224;12.074;2022-09-29T07:41:14;13.17;;;11.97;;
2840;SDS011;53423;49.224;12.074;2022-09-29T07:43:43;13.17;;;11.93;;
2840;SDS011;53423;49.224;12.074;2022-09-29T07:46:11;12.13;;;11.07;;
2840;SDS011;53423;49.224;12.074;2022-09-29T07:48:41;12.07;;;10.97;;
2840;SDS011;53423;49.224;12.074;2022-09-29T07:51:10;11.23;;;10.23;;
2840;SDS011;53423;49.224;12.074;2022-09-29T07:53:40;12.47;;;11.30;;
2840;SDS011;53423;49.224;12.074;2022-09-29T07:56:09;11.80;;;10.70;;
2840;SDS011;53423;49.224;12.074;2022-09-29T07:58:39;10.77;;;9.87;;
2840;SDS011;53423;49.224;12.074;2022-09-29T08:01:08;12.20;;;11.10;;
2840;SDS011;53423;49.224;12.074;2022-09-29T08:03:39;11.33;;;10.43;;
2840;SDS011;53423;49.224;12.074;2022-09-29T08:06:09;11.50;;;10.50;;
2840;SDS011;53423;49.224;12.074;2022-09-29T08:08:38;12.40;;;11.30;;
2840;SDS011;53423;49.224;12.074;2022-09-29T08:11:13;12.17;;;10.97;;
2840;SDS011;53423;49.224;12.074;2022-09-29T08:13:56;10.50;;;9.60;;
2840;SDS011;53423;49.224;12.074;2022-09-29T08:16:24;11.00;;;10.00;;
2840;SDS011;53423;49.224;12.074;2022-09-29T08:18:54;11.37;;;10.30;;
2840;SDS011;53423;49.224;12.074;2022-09-29T08:21:21;12.30;;;11.20;;
2840;SDS011;53423;49.224;12.074;2022-09-29T08:23:49;11.90;;;10.80;;
2840;SDS011;53423;49.224;12.074;2022-09-29T08:26:18;11.77;;;10.77;;
2840;SDS011;53423;49.224;12.074;2022-09-29T08:29:04;12.73;;;11.50;;
2840;SDS011;53423;49.224;12.074;2022-09-29T08:31:34;11.57;;;10.57;;
2840;SDS011;53423;49.224;12.074;2022-09-29T08:34:05;11.10;;;10.13;;
2840;SDS011;53423;49.224;12.074;2022-09-29T08:36:33;11.17;;;10.07;;
2840;SDS011;53423;49.224;12.074;2022-09-29T08:39:02;9.33;;;8.57;;
2840;SDS011;53423;49.224;12.074;2022-09-29T08:41:37;9.60;;;8.70;;
2840;SDS011;53423;49.224;12.074;2022-09-29T08:44:17;11.30;;;10.20;;
2840;SDS011;53423;49.224;12.074;2022-09-29T08:47:04;10.77;;;9.87;;
2840;SDS011;53423;49.224;12.074;2022-09-29T08:49:43;10.37;;;9.40;;
2840;SDS011;53423;49.224;12.074;2022-09-29T08:52:15;10.87;;;9.97;;
2840;SDS011;53423;49.224;12.074;2022-09-29T08:54:46;11.07;;;10.17;;
2840;SDS011;53423;49.224;12.074;2022-09-29T08:57:19;10.60;;;9.57;;
2840;SDS011;53423;49.224;12.074;2022-09-29T08:59:49;10.83;;;9.83;;
2840;SDS011;53423;49.224;12.074;2022-09-29T09:02:29;10.10;;;9.30;;
2840;SDS011;53423;49.224;12.074;2022-09-29T09:05:26;10.00;;;9.20;;
2840;SDS011;53423;49.224;12.074;2022-09-29T09:08:12;10.13;;;9.17;;
2840;SDS011;53423;49.224;12.074;2022-09-29T09:10:52;9.23;;;8.53;;
2840;SDS011;53423;49.224;12.074;2022-09-29T09:13:31;9.93;;;9.13;;
2840;SDS011;53423;49.224;12.074;2022-09-29T09:16:15;10.43;;;9.47;;
2840;SDS011;53423;49.224;12.074;2022-09-29T09:19:05;9.43;;;8.63;;
2840;SDS011;53423;49.224;12.074;2022-09-29T09:21:51;9.43;;;8.63;;
2840;SDS011;53423;49.224;12.074;2022-09-29T09:24:27;10.63;;;9.63;;
2840;SDS011;53423;49.224;12.074;2022-09-29T09:27:03;10.20;;;9.30;;
2840;SDS011;53423;49.224;12.074;2022-09-29T09:29:31;9.53;;;8.73;;
2840;SDS011;53423;49.224;12.074;2022-09-29T09:32:04;9.93;;;9.03;;
2840;SDS011;53423;49.224;12.074;2022-09-29T09:34:37;9.70;;;8.80;;
2840;SDS011;53423;49.224;12.074;2022-09-29T09:37:13;8.53;;;7.83;;
2840;SDS011;53423;49.224;12.074;2022-09-29T09:39:47;9.30;;;8.50;;
2840;SDS011;53423;49.224;12.074;2022-09-29T09:42:24;8.60;;;7.90;;
2840;SDS011;53423;49.224;12.074;2022-09-29T09:44:56;9.67;;;8.67;;
2840;SDS011;53423;49.224;12.074;2022-09-29T09:47:28;10.10;;;8.97;;
2840;SDS011;53423;49.224;12.074;2022-09-29T09:49:58;8.47;;;7.73;;
2840;SDS011;53423;49.224;12.074;2022-09-29T09:52:32;8.43;;;7.73;;
2840;SDS011;53423;49.224;12.074;2022-09-29T09:55:08;8.47;;;7.77;;
2840;SDS011;53423;49.224;12.074;2022-09-29T09:57:47;8.37;;;7.57;;
2840;SDS011;53423;49.224;12.074;2022-09-29T10:00:27;8.13;;;7.43;;
2840;SDS011;53423;49.224;12.074;2022-09-29T10:03:00;7.73;;;7.03;;
2840;SDS011;53423;49.224;12.074;2022-09-29T10:05:31;7.77;;;7.07;;
2840;SDS011;53423;49.224;12.074;2022-09-29T10:08:06;7.80;;;7.20;;
2840;SDS011;53423;49.224;12.074;2022-09-29T10:10:39;8.03;;;7.33;;
2840;SDS011;53423;49.224;12.074;2022-09-29T10:13:24;8.30;;;7.60;;
2840;SDS011;53423;49.224;12.074;2022-09-29T10:15:53;8.00;;;7.17;;
2840;SDS011;53423;49.224;12.074;2022-09-29T10:18:26;14.03;;;12.73;;
2840;SDS011;53423;49.224;12.074;2022-09-29T10:20:58;17.50;;;15.90;;
2840;SDS011;53423;49.224;12.074;2022-09-29T10:23:28;12.03;;;10.93;;
2840;SDS011;53423;49.224;12.074;2022-09-29T10:25:58;9.00;;;8.20;;
2840;SDS011;53423;49.224;12.074;2022-09-29T10:28:39;9.60;;;8.70;;
2840;SDS011;53423;49.224;12.074;2022-09-29T10:31:15;9.50;;;8.70;;
2840;SDS011;53423;49.224;12.074;2022-09-29T10:33:54;8.83;;;8.03;;
2840;SDS011;53423;49.224;12.074;2022-09-29T10:36:24;10.07;;;9.07;;
2840;SDS011;53423;49.224;12.074;2022-09-29T10:38:56;8.43;;;7.63;;
2840;SDS011;53423;49.224;12.074;2022-09-29T10:41:28;8.60;;;7.53;;
2840;SDS011;53423;49.224;12.074;2022-09-29T10:43:57;9.10;;;7.80;;
2840;SDS011;53423;49.224;12.074;2022-09-29T10:46:48;7.93;;;7.30;;
2840;SDS011;53423;49.224;12.074;2022-09-29T10:49:19;8.20;;;7.33;;
2840;SDS011;53423;49.224;12.074;2022-09-29T10:51:51;10.70;;;7.77;;
2840;SDS011;53423;49.224;12.074;2022-09-29T10:54:24;7.73;;;6.80;;
2840;SDS011;53423;49.224;12.074;2022-09-29T10:56:54;6.90;;;6.30;;
2840;SDS011;53423;49.224;12.074;2022-09-29T10:59:24;7.07;;;6.37;;
2840;SDS011;53423;49.224;12.074;2022-09-29T11:01:54;6.77;;;6.20;;
2840;SDS011;53423;49.224;12.074;2022-09-29T11:04:26;6.87;;;6.27;;
2840;SDS011;53423;49.224;12.074;2022-09-29T11:06:56;6.00;;;5.50;;
2840;SDS011;53423;49.224;12.074;2022-09-29T11:09:38;6.50;;;6.00;;
2840;SDS011;53423;49.224;12.074;2022-09-29T11:12:23;6.33;;;5.90;;
2840;SDS011;53423;49.224;12.074;2022-09-29T11:14:54;6.33;;;5.73;;
2840;SDS011;53423;49.224;12.074;2022-09-29T11:17:22;7.10;;;6.50;;
2840;SDS011;53423;49.224;12.074;2022-09-29T11:19:52;5.90;;;5.40;;
2840;SDS011;53423;49.224;12.074;2022-09-29T11:22:35;5.70;;;5.20;;
2840;SDS011;53423;49.224;12.074;2022-09-29T11:28:10;6.13;;;5.53;;
2840;SDS011;53423;49.224;12.074;2022-09-29T11:30:58;5.80;;;5.30;;
2840;SDS011;53423;49.224;12.074;2022-09-29T11:33:38;5.90;;;5.47;;
2840;SDS011;53423;49.224;12.074;2022-09-29T11:36:16;5.93;;;5.33;;
2840;SDS011;53423;49.224;12.074;2022-09-29T11:38:55;5.93;;;5.43;;
2840;SDS011;53423;49.224;12.074;2022-09-29T11:41:48;5.87;;;5.27;;
2840;SDS011;53423;49.224;12.074;2022-09-29T11:44:39;6.10;;;5.60;;
2840;SDS011;53423;49.224;12.074;2022-09-29T11:47:39;5.53;;;5.17;;
2840;SDS011;53423;49.224;12.074;2022-09-29T11:50:30;6.10;;;5.50;;
2840;SDS011;53423;49.224;12.074;2022-09-29T11:53:14;5.53;;;5.10;;
2840;SDS011;53423;49.224;12.074;2022-09-29T11:55:58;5.57;;;4.87;;
2840;SDS011;53423;49.224;12.074;2022-09-29T11:58:41;4.80;;;4.40;;
2840;SDS011;53423;49.224;12.074;2022-09-29T12:01:29;4.83;;;4.43;;
2840;SDS011;53423;49.224;12.074;2022-09-29T12:04:12;5.30;;;4.77;;
2840;SDS011;53423;49.224;12.074;2022-09-29T12:06:53;5.10;;;4.63;;
2840;SDS011;53423;49.224;12.074;2022-09-29T12:12:25;6.20;;;5.33;;
2840;SDS011;53423;49.224;12.074;2022-09-29T12:15:09;5.90;;;4.90;;
2840;SDS011;53423;49.224;12.074;2022-09-29T12:17:53;6.03;;;4.90;;
2840;SDS011;53423;49.224;12.074;2022-09-29T12:20:26;4.90;;;4.40;;
2840;SDS011;53423;49.224;12.074;2022-09-29T12:22:58;5.13;;;4.63;;
2840;SDS011;53423;49.224;12.074;2022-09-29T12:25:32;5.23;;;4.73;;
2840;SDS011;53423;49.224;12.074;2022-09-29T12:28:05;5.83;;;4.47;;
2840;SDS011;53423;49.224;12.074;2022-09-29T12:30:42;6.73;;;5.57;;
2840;SDS011;53423;49.224;12.074;2022-09-29T12:33:19;4.83;;;4.43;;
2840;SDS011;53423;49.224;12.074;2022-09-29T12:35:51;4.77;;;4.27;;
2840;SDS011;53423;49.224;12.074;2022-09-29T12:38:29;5.00;;;4.50;;
2840;SDS011;53423;49.224;12.074;2022-09-29T12:41:06;5.23;;;4.83;;
2840;SDS011;53423;49.224;12.074;2022-09-29T12:43:42;5.23;;;4.77;;
2840;SDS011;53423;49.224;12.074;2022-09-29T12:46:18;5.20;;;4.70;;
2840;SDS011;53423;49.224;12.074;2022-09-29T12:48:54;5.37;;;4.37;;
2840;SDS011;53423;49.224;12.074;2022-09-29T12:51:29;5.03;;;4.63;;
2840;SDS011;53423;49.224;12.074;2022-09-29T12:54:02;4.90;;;4.50;;
2840;SDS011;53423;49.224;12.074;2022-09-29T12:56:42;4.80;;;4.40;;
2840;SDS011;53423;49.224;12.074;2022-09-29T12:59:24;4.93;;;4.07;;
2840;SDS011;53423;49.224;12.074;2022-09-29T13:01:59;4.37;;;3.97;;
2840;SDS011;53423;49.224;12.074;2022-09-29T13:10:54;4.47;;;4.07;;
2840;SDS011;53423;49.224;12.074;2022-09-29T13:13:36;4.47;;;4.00;;
2840;SDS011;53423;49.224;12.074;2022-09-29T13:16:38;4.53;;;4.13;;
2840;SDS011;53423;49.224;12.074;2022-09-29T13:19:38;4.90;;;4.50;;
2840;SDS011;53423;49.224;12.074;2022-09-29T13:22:28;4.37;;;3.97;;
2840;SDS011;53423;49.224;12.074;2022-09-29T13:25:14;4.10;;;3.80;;
2840;SDS011;53423;49.224;12.074;2022-09-29T13:27:50;5.07;;;4.03;;
2840;SDS011;53423;49.224;12.074;2022-09-29T13:30:21;4.23;;;3.50;;
2840;SDS011;53423;49.224;12.074;2022-09-29T13:32:57;5.07;;;3.87;;
2840;SDS011;53423;49.224;12.074;2022-09-29T13:35:37;3.83;;;3.43;;
2840;SDS011;53423;49.224;12.074;2022-09-29T13:38:12;4.73;;;3.90;;
2840;SDS011;53423;49.224;12.074;2022-09-29T13:46:35;5.93;;;3.80;;
2840;SDS011;53423;49.224;12.074;2022-09-29T13:49:12;4.50;;;4.10;;
2840;SDS011;53423;49.224;12.074;2022-09-29T13:51:45;4.40;;;4.00;;
2840;SDS011;53423;49.224;12.074;2022-09-29T13:54:29;5.70;;;3.87;;
2840;SDS011;53423;49.224;12.074;2022-09-29T13:57:01;4.97;;;3.70;;
2840;SDS011;53423;49.224;12.074;2022-09-29T14:02:49;5.17;;;3.80;;
2840;SDS011;53423;49.224;12.074;2022-09-29T14:05:34;7.80;;;4.67;;
2840;SDS011;53423;49.224;12.074;2022-09-29T14:08:11;4.50;;;4.10;;
2840;SDS011;53423;49.224;12.074;2022-09-29T14:10:45;4.90;;;4.40;;
2840;SDS011;53423;49.224;12.074;2022-09-29T14:13:16;8.07;;;4.10;;
2840;SDS011;53423;49.224;12.074;2022-09-29T14:15:50;3.93;;;3.63;;
2840;SDS011;53423;49.224;12.074;2022-09-29T14:18:25;4.37;;;3.30;;
2840;SDS011;53423;49.224;12.074;2022-09-29T14:20:59;6.27;;;4.67;;
2840;SDS011;53423;49.224;12.074;2022-09-29T14:23:47;5.30;;;4.80;;
2840;SDS011;53423;49.224;12.074;2022-09-29T14:29:12;6.47;;;5.00;;
2840;SDS011;53423;49.224;12.074;2022-09-29T14:31:47;6.20;;;5.63;;
2840;SDS011;53423;49.224;12.074;2022-09-29T14:34:19;6.77;;;5.77;;
2840;SDS011;53423;49.224;12.074;2022-09-29T14:36:50;7.23;;;5.67;;
2840;SDS011;53423;49.224;12.074;2022-09-29T14:39:21;9.30;;;6.63;;
2840;SDS011;53423;49.224;12.074;2022-09-29T14:42:00;5.30;;;4.80;;
2840;SDS011;53423;49.224;12.074;2022-09-29T14:44:29;5.60;;;4.73;;
2840;SDS011;53423;49.224;12.074;2022-09-29T14:47:23;6.00;;;4.17;;
2840;SDS011;53423;49.224;12.074;2022-09-29T14:50:24;4.53;;;4.13;;
2840;SDS011;53423;49.224;12.074;2022-09-29T14:56:16;6.47;;;5.50;;
2840;SDS011;53423;49.224;12.074;2022-09-29T14:58:59;7.53;;;6.83;;
2840;SDS011;53423;49.224;12.074;2022-09-29T15:01:37;9.57;;;8.67;;
2840;SDS011;53423;49.224;12.074;2022-09-29T15:04:22;8.20;;;7.43;;
2840;SDS011;53423;49.224;12.074;2022-09-29T15:06:50;7.23;;;6.63;;
2840;SDS011;53423;49.224;12.074;2022-09-29T15:09:19;8.17;;;6.87;;
2840;SDS011;53423;49.224;12.074;2022-09-29T15:11:51;7.97;;;5.63;;
2840;SDS011;53423;49.224;12.074;2022-09-29T15:14:22;8.00;;;5.53;;
2840;SDS011;53423;49.224;12.074;2022-09-29T15:17:02;6.63;;;4.47;;
2840;SDS011;53423;49.224;12.074;2022-09-29T15:19:41;4.97;;;4.47;;
2840;SDS011;53423;49.224;12.074;2022-09-29T15:25:24;7.20;;;5.90;;
2840;SDS011;53423;49.224;12.074;2022-09-29T15:27:58;10.10;;;7.93;;
2840;SDS011;53423;49.224;12.074;2022-09-29T15:30:28;10.00;;;7.73;;
2840;SDS011;53423;49.224;12.074;2022-09-29T15:33:06;10.87;;;8.73;;
2840;SDS011;53423;49.224;12.074;2022-09-29T15:35:46;8.17;;;7.03;;
2840;SDS011;53423;49.224;12.074;2022-09-29T15:41:14;6.63;;;5.90;;
2840;SDS011;53423;49.224;12.074;2022-09-29T15:43:51;6.13;;;5.63;;
2840;SDS011;53423;49.224;12.074;2022-09-29T15:46:22;7.13;;;6.43;;
2840;SDS011;53423;49.224;12.074;2022-09-29T15:49:09;8.03;;;7.23;;
2840;SDS011;53423;49.224;12.074;2022-09-29T15:51:40;9.17;;;8.27;;
2840;SDS011;53423;49.224;12.074;2022-09-29T15:54:10;7.67;;;6.97;;